createdAt,value
2023-03-01T00:01:57.399Z,84.43
2023-03-01T00:04:00.823Z,84.85
2023-03-01T00:06:03.911Z,84.68
2023-03-01T00:08:06.770Z,84.90
2023-03-01T00:10:10.851Z,84.72
2023-03-01T00:12:13.598Z,85.31
2023-03-01T00:14:17.296Z,85.22
2023-03-01T00:16:23.990Z,85.67
2023-03-01T00:18:26.650Z,85.73
2023-03-01T00:20:31.207Z,85.80
2023-03-01T00:22:33.849Z,86.19
2023-03-01T00:24:36.511Z,85.98
2023-03-01T00:26:39.385Z,85.94
2023-03-01T00:28:42.060Z,85.74
2023-03-01T00:30:44.897Z,85.94
2023-03-01T00:32:48.961Z,86.18
2023-03-01T00:34:55.877Z,86.35
2023-03-01T00:37:05.910Z,86.49
2023-03-01T00:39:13.336Z,86.50
2023-03-01T00:41:18.876Z,86.61
2023-03-01T00:43:21.812Z,86.71
2023-03-01T00:45:24.959Z,87.01
2023-03-01T00:47:27.560Z,87.20
2023-03-01T00:49:31.616Z,87.32
2023-03-01T00:51:34.559Z,87.39
2023-03-01T00:53:37.832Z,87.58
2023-03-01T00:55:40.478Z,87.79
2023-03-01T00:57:43.094Z,87.77
2023-03-01T00:59:45.740Z,88.03
2023-03-01T01:01:48.397Z,87.70
2023-03-01T01:03:53.282Z,87.82
2023-03-01T01:05:57.322Z,87.71
2023-03-01T01:07:59.995Z,88.16
2023-03-01T01:10:03.008Z,88.31
2023-03-01T01:12:05.961Z,88.61
2023-03-01T01:14:08.612Z,88.90
2023-03-01T01:16:11.335Z,89.37
2023-03-01T01:18:14.235Z,89.17
2023-03-01T01:20:16.996Z,89.28
2023-03-01T01:22:21.001Z,89.65
2023-03-01T01:24:23.693Z,89.86
2023-03-01T01:26:29.476Z,90.30
2023-03-01T01:28:32.666Z,90.30
2023-03-01T01:30:35.382Z,90.16
2023-03-01T01:32:38.067Z,90.26
2023-03-01T01:34:41.351Z,90.41
2023-03-01T01:36:44.642Z,90.79
2023-03-01T01:38:48.634Z,90.99
2023-03-01T01:40:52.285Z,90.60
2023-03-01T01:42:54.913Z,90.28
2023-03-01T01:45:33.964Z,90.90
2023-03-01T01:47:36.901Z,90.82
2023-03-01T01:49:44.088Z,90.93
2023-03-01T01:51:49.313Z,90.63
2023-03-01T01:53:57.952Z,90.34
2023-03-01T01:56:03.470Z,90.22
2023-03-01T01:58:08.764Z,89.78
2023-03-01T02:00:15.074Z,90.05
2023-03-01T02:02:18.085Z,89.71
2023-03-01T02:04:21.307Z,89.40
2023-03-01T02:06:30.351Z,89.32
2023-03-01T02:08:37.274Z,89.14
2023-03-01T02:10:42.513Z,89.11
2023-03-01T02:12:45.189Z,88.83
2023-03-01T02:14:47.809Z,89.10
2023-03-01T02:16:51.024Z,89.02
2023-03-01T02:18:54.510Z,88.75
2023-03-01T02:21:10.404Z,89.06
2023-03-01T02:23:13.499Z,88.87
2023-03-01T02:25:27.608Z,88.64
2023-03-01T02:27:38.932Z,88.44
2023-03-01T02:29:44.851Z,88.22
2023-03-01T02:31:46.590Z,88.09
2023-03-01T02:33:50.230Z,88.19
2023-03-01T02:35:54.558Z,88.34
2023-03-01T02:37:58.062Z,88.50
2023-03-01T02:40:06.424Z,89.00
2023-03-01T02:42:11.652Z,88.74
2023-03-01T02:44:14.544Z,88.89
2023-03-01T02:46:20.929Z,88.71
2023-03-01T02:48:23.565Z,88.56
2023-03-01T02:50:49.153Z,88.69
2023-03-01T02:53:00.680Z,88.81
2023-03-01T02:55:06.836Z,89.18
2023-03-01T02:57:11.156Z,89.60
2023-03-01T02:59:14.261Z,89.20
2023-03-01T03:01:18.276Z,89.15
2023-03-01T03:03:23.263Z,89.74
2023-03-01T03:05:27.963Z,89.59
2023-03-01T03:07:30.801Z,89.41
2023-03-01T03:09:33.450Z,89.02
2023-03-01T03:11:37.667Z,89.11
2023-03-01T03:13:48.903Z,89.29
2023-03-01T03:15:51.688Z,89.09
2023-03-01T03:17:56.425Z,89.13
2023-03-01T03:19:59.076Z,89.08
2023-03-01T03:22:02.780Z,89.21
2023-03-01T03:24:06.344Z,89.03
2023-03-01T03:26:08.918Z,89.47
2023-03-01T03:28:11.593Z,89.25
2023-03-01T03:30:16.862Z,89.76
2023-03-01T03:32:19.567Z,89.57
2023-03-01T03:34:24.215Z,89.64
2023-03-01T03:36:26.906Z,89.96
2023-03-01T03:38:29.525Z,89.72
2023-03-01T03:40:35.368Z,89.66
2023-03-01T03:42:38.029Z,89.56
2023-03-01T03:44:40.685Z,90.21
2023-03-01T03:46:43.312Z,90.25
2023-03-01T03:48:47.361Z,90.46
2023-03-01T03:50:53.455Z,90.05
2023-03-01T03:52:56.129Z,89.95
2023-03-01T03:54:58.807Z,90.70
2023-03-01T03:57:01.450Z,90.52
2023-03-01T03:59:04.273Z,90.48
2023-03-01T04:01:07.109Z,90.14
2023-03-01T04:03:10.535Z,90.19
2023-03-01T04:05:16.145Z,90.52
2023-03-01T04:07:20.124Z,90.29
2023-03-01T04:09:22.806Z,90.34
2023-03-01T04:11:28.227Z,90.53
2023-03-01T04:13:30.842Z,90.62
2023-03-01T04:15:34.415Z,90.85
2023-03-01T04:17:37.186Z,90.97
2023-03-01T04:19:39.806Z,90.59
2023-03-01T04:21:42.429Z,90.57
2023-03-01T04:23:46.400Z,90.60
2023-03-01T04:25:54.972Z,90.93
2023-03-01T04:27:57.636Z,90.84
2023-03-01T04:30:00.216Z,90.81
2023-03-01T04:32:04.052Z,90.82
2023-03-01T04:34:06.722Z,91.04
2023-03-01T04:36:10.767Z,90.86
2023-03-01T04:38:13.863Z,90.99
2023-03-01T04:40:18.511Z,90.93
2023-03-01T04:42:21.303Z,91.07
2023-03-01T04:44:24.182Z,91.03
2023-03-01T04:46:27.450Z,90.73
2023-03-01T04:48:30.233Z,90.89
2023-03-01T04:50:34.040Z,91.05
2023-03-01T04:52:36.943Z,90.52
2023-03-01T04:54:39.570Z,91.07
2023-03-01T04:56:43.560Z,90.93
2023-03-01T04:58:47.114Z,90.81
2023-03-01T05:03:19.144Z,91.03
2023-03-01T05:05:26.454Z,91.70
2023-03-01T05:07:29.316Z,91.37
2023-03-01T05:09:31.941Z,91.80
2023-03-01T05:11:36.843Z,91.49
2023-03-01T05:13:42.227Z,91.21
2023-03-01T05:15:44.846Z,91.33
2023-03-01T05:17:47.868Z,91.35
2023-03-01T05:19:50.969Z,91.89
2023-03-01T05:22:06.040Z,91.96
2023-03-01T05:24:12.650Z,92.06
2023-03-01T05:26:39.370Z,92.10
2023-03-01T05:28:40.569Z,92.23
2023-03-01T05:30:44.565Z,91.78
2023-03-01T05:32:50.332Z,91.96
2023-03-01T05:34:53.201Z,92.04
2023-03-01T05:36:56.318Z,92.02
2023-03-01T05:38:59.001Z,91.54
2023-03-01T05:41:01.701Z,91.37
2023-03-01T05:43:06.129Z,91.52
2023-03-01T05:45:10.582Z,91.59
2023-03-01T05:47:14.603Z,92.14
2023-03-01T05:49:17.998Z,91.88
2023-03-01T05:51:20.837Z,91.80
2023-03-01T05:53:23.531Z,92.08
2023-03-01T05:55:28.171Z,91.66
2023-03-01T05:57:31.743Z,92.08
2023-03-01T05:59:34.498Z,92.10
2023-03-01T06:01:37.504Z,91.72
2023-03-01T06:03:41.518Z,91.77
2023-03-01T06:05:44.790Z,92.01
2023-03-01T06:07:47.666Z,92.20
2023-03-01T06:09:50.246Z,92.15
2023-03-01T06:11:52.957Z,92.51
2023-03-01T06:13:55.717Z,92.61
2023-03-01T06:15:58.412Z,92.48
2023-03-01T06:18:01.060Z,92.02
2023-03-01T06:20:05.967Z,92.39
2023-03-01T06:22:09.240Z,91.54
2023-03-01T06:24:11.880Z,91.66
2023-03-01T06:26:14.533Z,91.67
2023-03-01T06:28:17.458Z,91.65
2023-03-01T06:30:22.626Z,91.68
2023-03-01T06:32:25.290Z,91.38
2023-03-01T06:34:28.008Z,91.93
2023-03-01T06:36:32.453Z,91.84
2023-03-01T06:38:35.284Z,91.83
2023-03-01T06:40:37.941Z,91.79
2023-03-01T06:42:42.711Z,91.87
2023-03-01T06:44:46.750Z,91.38
2023-03-01T06:46:49.397Z,91.58
2023-03-01T06:48:53.419Z,91.80
2023-03-01T06:50:56.141Z,92.12
2023-03-01T06:53:00.649Z,92.48
2023-03-01T06:55:03.920Z,92.51
2023-03-01T06:57:06.563Z,92.69
2023-03-01T06:59:09.238Z,93.09
2023-03-01T07:01:11.916Z,92.68
2023-03-01T07:03:14.622Z,92.40
2023-03-01T07:05:17.497Z,93.11
2023-03-01T07:07:21.000Z,93.35
2023-03-01T07:09:25.378Z,93.85
2023-03-01T07:11:28.070Z,93.29
2023-03-01T07:13:30.940Z,93.07
2023-03-01T07:15:33.860Z,93.40
2023-03-01T07:17:36.542Z,93.27
2023-03-01T07:19:39.196Z,93.78
2023-03-01T07:21:41.813Z,93.80
2023-03-01T07:23:45.023Z,93.54
2023-03-01T07:25:55.006Z,92.93
2023-03-01T07:27:57.669Z,93.19
2023-03-01T07:30:00.277Z,92.78
2023-03-01T07:32:03.018Z,92.82
2023-03-01T07:34:05.729Z,92.81
2023-03-01T07:36:09.016Z,92.76
2023-03-01T07:38:11.752Z,92.48
2023-03-01T07:40:14.979Z,91.81
2023-03-01T07:42:19.204Z,92.12
2023-03-01T07:44:21.989Z,91.73
2023-03-01T07:46:24.757Z,91.38
2023-03-01T07:48:27.465Z,89.06
2023-03-01T07:50:30.117Z,85.39
2023-03-01T07:52:32.800Z,85.07
2023-03-01T07:54:35.897Z,85.09
2023-03-01T07:56:38.555Z,83.11
2023-03-01T07:58:44.251Z,82.50
2023-03-01T08:00:46.839Z,82.01
2023-03-01T08:02:49.455Z,81.32
2023-03-01T08:04:52.052Z,81.04
2023-03-01T08:06:55.193Z,80.89
2023-03-01T08:08:59.346Z,80.61
2023-03-01T08:11:03.740Z,81.03
2023-03-01T08:13:06.480Z,79.38
2023-03-01T08:15:11.857Z,77.93
2023-03-01T08:17:15.794Z,75.64
2023-03-01T08:19:18.665Z,75.57
2023-03-01T08:21:21.329Z,77.45
2023-03-01T08:23:24.046Z,76.64
2023-03-01T08:25:26.898Z,76.61
2023-03-01T08:27:29.708Z,77.76
2023-03-01T08:29:32.773Z,77.43
2023-03-01T08:31:39.249Z,74.51
2023-03-01T08:33:42.081Z,74.87
2023-03-01T08:35:44.880Z,69.96
2023-03-01T08:37:47.570Z,70.98
2023-03-01T08:39:50.326Z,68.37
2023-03-01T08:41:53.190Z,65.95
2023-03-01T08:43:59.741Z,66.45
2023-03-01T08:46:02.742Z,64.33
2023-03-01T08:48:07.048Z,66.44
2023-03-01T08:50:11.061Z,67.54
2023-03-01T08:52:13.744Z,67.29
2023-03-01T08:54:18.994Z,64.74
2023-03-01T08:56:22.603Z,64.17
2023-03-01T08:58:25.274Z,65.62
2023-03-01T09:00:29.000Z,63.60
2023-03-01T09:02:31.737Z,65.55
2023-03-01T09:04:35.837Z,61.24
2023-03-01T09:06:38.948Z,58.23
2023-03-01T09:08:44.029Z,61.29
2023-03-01T09:10:46.977Z,62.79
2023-03-01T09:12:49.704Z,63.38
2023-03-01T09:14:52.448Z,61.41
2023-03-01T09:16:55.230Z,61.58
2023-03-01T09:18:57.928Z,59.11
2023-03-01T09:21:08.323Z,60.18
2023-03-01T09:23:11.035Z,59.01
2023-03-01T09:25:13.698Z,59.33
2023-03-01T09:27:19.569Z,57.27
2023-03-01T09:29:22.393Z,55.63
2023-03-01T09:31:26.227Z,60.03
2023-03-01T09:33:29.614Z,55.49
2023-03-01T09:35:32.372Z,54.61
2023-03-01T09:37:38.303Z,54.43
2023-03-01T09:39:40.944Z,51.59
2023-03-01T09:41:50.863Z,48.64
2023-03-01T09:43:58.863Z,50.47
2023-03-01T09:46:06.624Z,51.46
2023-03-01T09:48:17.579Z,53.87
2023-03-01T09:50:22.029Z,55.46
2023-03-01T09:52:30.634Z,54.38
2023-03-01T09:54:34.689Z,53.08
2023-03-01T09:56:42.169Z,55.18
2023-03-01T09:58:53.498Z,55.59
2023-03-01T10:00:59.995Z,54.78
2023-03-01T10:03:11.583Z,50.58
2023-03-01T10:05:45.597Z,52.92
2023-03-01T10:07:56.725Z,50.66
2023-03-01T10:10:02.174Z,54.49
2023-03-01T10:12:10.221Z,52.70
2023-03-01T10:14:29.700Z,53.26
2023-03-01T10:16:43.757Z,55.50
2023-03-01T10:18:51.737Z,55.50
2023-03-01T10:20:56.888Z,54.06
2023-03-01T10:22:59.621Z,52.70
2023-03-01T10:25:05.625Z,53.02
2023-03-01T10:27:14.895Z,55.19
2023-03-01T10:29:17.901Z,54.23
2023-03-01T10:31:29.246Z,52.30
2023-03-01T10:33:34.890Z,51.82
2023-03-01T10:35:37.833Z,51.32
2023-03-01T10:37:58.378Z,53.33
2023-03-01T10:40:09.133Z,54.63
2023-03-01T10:42:24.726Z,50.90
2023-03-01T10:44:46.230Z,51.50
2023-03-01T10:47:01.456Z,53.82
2023-03-01T10:49:14.016Z,55.23
2023-03-01T10:51:21.165Z,53.23
2023-03-01T10:53:27.932Z,53.79
2023-03-01T10:55:36.824Z,52.27
2023-03-01T10:57:42.864Z,55.66
2023-03-01T10:59:45.848Z,57.07
2023-03-01T11:02:07.034Z,57.72
2023-03-01T11:04:17.138Z,57.75
2023-03-01T11:06:24.137Z,57.96
2023-03-01T11:08:39.539Z,58.52
2023-03-01T11:10:43.663Z,58.35
2023-03-01T11:12:46.352Z,58.94
2023-03-01T11:14:50.282Z,59.34
2023-03-01T11:17:01.064Z,59.32
2023-03-01T11:19:19.118Z,58.70
2023-03-01T11:21:21.999Z,58.21
2023-03-01T11:23:25.920Z,58.97
2023-03-01T11:25:33.692Z,59.94
2023-03-01T11:27:43.860Z,59.89
2023-03-01T11:29:52.107Z,59.44
2023-03-01T11:31:59.658Z,59.80
2023-03-01T11:34:12.292Z,60.05
2023-03-01T11:36:30.743Z,59.37
2023-03-01T11:38:37.564Z,59.44
2023-03-01T11:40:43.789Z,60.42
2023-03-01T11:42:57.961Z,60.09
2023-03-01T11:45:03.954Z,60.18
2023-03-01T11:47:26.226Z,59.74
2023-03-01T11:49:48.468Z,60.36
2023-03-01T11:51:59.604Z,60.11
2023-03-01T11:54:11.827Z,58.89
2023-03-01T11:56:30.743Z,59.15
2023-03-01T11:58:53.579Z,59.40
2023-03-01T12:01:10.099Z,58.66
2023-03-01T12:03:29.722Z,58.28
2023-03-01T12:05:54.398Z,57.54
2023-03-01T12:08:03.612Z,57.66
2023-03-01T12:10:25.367Z,58.06
2023-03-01T12:12:39.619Z,58.46
2023-03-01T12:15:02.080Z,57.49
2023-03-01T12:17:16.693Z,58.04
2023-03-01T12:19:35.214Z,57.98
2023-03-01T12:21:55.491Z,57.93
2023-03-01T12:24:17.198Z,57.46
2023-03-01T12:26:33.218Z,57.68
2023-03-01T12:29:12.899Z,54.94
2023-03-01T12:31:46.305Z,56.10
2023-03-01T12:33:59.110Z,56.04
2023-03-01T12:36:12.422Z,55.28
2023-03-01T12:38:31.900Z,55.20
2023-03-01T12:40:59.514Z,54.51
2023-03-01T12:43:16.226Z,54.50
2023-03-01T12:45:34.551Z,54.73
2023-03-01T12:48:00.355Z,55.48
2023-03-01T12:50:08.192Z,54.89
2023-03-01T12:52:17.121Z,54.74
2023-03-01T12:54:28.042Z,55.68
2023-03-01T12:56:33.339Z,55.17
2023-03-01T12:58:49.678Z,53.45
2023-03-01T13:01:07.665Z,55.11
2023-03-01T13:03:25.159Z,54.90
2023-03-01T13:05:41.506Z,53.53
2023-03-01T13:07:52.832Z,53.80
2023-03-01T13:10:16.750Z,54.53
2023-03-01T13:12:45.579Z,54.85
2023-03-01T13:14:48.497Z,54.13
2023-03-01T13:16:52.192Z,53.98
2023-03-01T13:19:08.885Z,54.97
2023-03-01T13:21:11.628Z,53.84
2023-03-01T13:23:26.397Z,54.41
2023-03-01T13:25:34.703Z,53.85
2023-03-01T13:27:46.413Z,53.31
2023-03-01T13:29:50.833Z,55.04
2023-03-01T13:32:04.586Z,54.17
2023-03-01T13:34:42.432Z,54.40
2023-03-01T13:36:49.642Z,53.93
2023-03-01T13:38:59.103Z,53.84
2023-03-01T13:41:02.351Z,53.24
2023-03-01T13:43:30.517Z,52.98
2023-03-01T13:45:40.578Z,52.49
2023-03-01T13:47:44.852Z,53.28
2023-03-01T13:49:52.565Z,52.89
2023-03-01T13:51:55.310Z,52.65
2023-03-01T13:54:00.404Z,52.26
2023-03-01T13:56:08.815Z,53.40
2023-03-01T13:58:22.993Z,52.08
2023-03-01T14:00:38.278Z,53.59
2023-03-01T14:02:42.447Z,53.63
2023-03-01T14:04:45.176Z,54.28
2023-03-01T14:06:49.259Z,54.59
2023-03-01T14:09:03.432Z,55.17
2023-03-01T14:11:41.628Z,55.70
2023-03-01T14:13:56.892Z,55.79
2023-03-01T14:16:14.197Z,55.96
2023-03-01T14:18:24.815Z,56.38
2023-03-01T14:20:29.810Z,56.97
2023-03-01T14:22:36.558Z,55.81
2023-03-01T14:24:40.537Z,55.29
2023-03-01T14:26:43.871Z,56.52
2023-03-01T14:28:46.691Z,56.36
2023-03-01T14:30:51.451Z,57.33
2023-03-01T14:32:55.925Z,57.57
2023-03-01T14:35:00.189Z,57.24
2023-03-01T14:37:12.506Z,56.71
2023-03-01T14:39:22.068Z,56.96
2023-03-01T14:41:27.960Z,56.45
2023-03-01T14:43:32.461Z,56.92
2023-03-01T14:45:35.162Z,56.76
2023-03-01T14:47:39.201Z,56.25
2023-03-01T14:49:42.460Z,55.83
2023-03-01T14:51:52.375Z,55.66
2023-03-01T14:53:55.856Z,55.53
2023-03-01T14:56:04.028Z,56.07
2023-03-01T14:58:11.474Z,55.74
2023-03-01T15:00:21.737Z,56.29
2023-03-01T15:02:27.317Z,56.49
2023-03-01T15:04:32.060Z,56.65
2023-03-01T15:06:34.900Z,56.71
2023-03-01T15:08:39.007Z,56.75
2023-03-01T15:10:44.490Z,56.76
2023-03-01T15:12:48.607Z,57.24
2023-03-01T15:15:03.251Z,56.77
2023-03-01T15:17:07.993Z,56.59
2023-03-01T15:19:20.165Z,56.55
2023-03-01T15:21:26.447Z,56.65
2023-03-01T15:23:31.988Z,56.95
2023-03-01T15:25:35.632Z,57.01
2023-03-01T15:27:43.130Z,57.20
2023-03-01T15:29:51.976Z,56.51
2023-03-01T15:32:00.465Z,56.90
2023-03-01T15:34:12.118Z,56.99
2023-03-01T15:36:39.478Z,56.76
2023-03-01T15:38:55.297Z,56.90
2023-03-01T15:40:59.734Z,57.04
2023-03-01T15:43:04.509Z,57.02
2023-03-01T15:45:13.129Z,57.44
2023-03-01T15:47:30.997Z,57.66
2023-03-01T15:49:53.945Z,57.73
2023-03-01T15:51:57.832Z,57.43
2023-03-01T15:54:02.923Z,58.31
2023-03-01T15:56:08.373Z,57.70
2023-03-01T15:58:15.491Z,57.93
2023-03-01T16:00:20.657Z,58.16
2023-03-01T16:02:24.417Z,57.83
2023-03-01T16:04:27.165Z,57.95
2023-03-01T16:06:30.023Z,58.25
2023-03-01T16:08:32.892Z,58.01
2023-03-01T16:10:36.939Z,58.45
2023-03-01T16:12:40.127Z,58.83
2023-03-01T16:14:42.866Z,58.85
2023-03-01T16:16:49.013Z,59.20
2023-03-01T16:18:54.296Z,59.35
2023-03-01T16:20:57.978Z,59.12
2023-03-01T16:23:02.009Z,59.15
2023-03-01T16:25:05.095Z,58.76
2023-03-01T16:27:08.000Z,58.79
2023-03-01T16:29:10.771Z,58.91
2023-03-01T16:31:13.929Z,58.98
2023-03-01T16:33:26.549Z,59.09
2023-03-01T16:35:35.650Z,59.45
2023-03-01T16:37:38.964Z,59.58
2023-03-01T16:39:41.602Z,59.36
2023-03-01T16:41:44.235Z,59.11
2023-03-01T16:43:48.552Z,59.33
2023-03-01T16:45:51.536Z,59.80
2023-03-01T16:47:56.029Z,59.26
2023-03-01T16:50:00.330Z,59.44
2023-03-01T16:52:03.078Z,59.70
2023-03-01T16:54:05.893Z,59.47
2023-03-01T16:56:10.919Z,59.68
2023-03-01T16:58:13.646Z,59.49
2023-03-01T17:00:18.711Z,59.82
2023-03-01T17:02:22.035Z,59.85
2023-03-01T17:04:24.774Z,59.71
2023-03-01T17:06:28.825Z,59.56
2023-03-01T17:08:31.688Z,59.75
2023-03-01T17:10:35.342Z,59.89
2023-03-01T17:12:38.073Z,59.90
2023-03-01T17:14:42.355Z,60.14
2023-03-01T17:16:46.038Z,59.96
2023-03-01T17:18:49.202Z,60.27
2023-03-01T17:20:51.927Z,60.62
2023-03-01T17:22:56.001Z,60.93
2023-03-01T17:24:58.725Z,60.41
2023-03-01T17:27:01.548Z,60.49
2023-03-01T17:29:05.135Z,60.26
2023-03-01T17:31:08.972Z,60.18
2023-03-01T17:33:12.074Z,60.46
2023-03-01T17:35:14.830Z,60.65
2023-03-01T17:37:17.575Z,60.43
2023-03-01T17:39:25.764Z,60.71
2023-03-01T17:41:28.754Z,60.96
2023-03-01T17:43:34.382Z,60.88
2023-03-01T17:45:38.146Z,60.80
2023-03-01T17:47:40.909Z,61.16
2023-03-01T17:49:43.726Z,61.41
2023-03-01T17:51:46.564Z,61.97
2023-03-01T17:53:49.232Z,61.66
2023-03-01T17:56:01.324Z,62.96
2023-03-01T17:58:04.740Z,63.26
2023-03-01T18:00:11.682Z,63.92
2023-03-01T18:02:14.702Z,64.11
2023-03-01T18:04:18.425Z,64.49
2023-03-01T18:06:24.676Z,64.88
2023-03-01T18:08:27.407Z,64.71
2023-03-01T18:10:30.319Z,64.94
2023-03-01T18:12:34.555Z,65.45
2023-03-01T18:14:37.656Z,66.06
2023-03-01T18:16:40.781Z,66.75
2023-03-01T18:18:45.143Z,65.91
2023-03-01T18:20:56.895Z,66.01
2023-03-01T18:22:59.814Z,66.13
2023-03-01T18:25:02.676Z,66.30
2023-03-01T18:27:05.586Z,66.67
2023-03-01T18:29:10.635Z,66.51
2023-03-01T18:31:13.508Z,67.02
2023-03-01T18:33:16.254Z,67.13
2023-03-01T18:35:19.271Z,67.38
2023-03-01T18:37:22.105Z,67.37
2023-03-01T18:39:25.726Z,66.99
2023-03-01T18:41:30.518Z,67.40
2023-03-01T18:43:33.547Z,67.48
2023-03-01T18:45:37.743Z,67.74
2023-03-01T18:47:40.545Z,68.33
2023-03-01T18:49:43.889Z,68.01
2023-03-01T18:51:46.674Z,67.86
2023-03-01T18:53:49.427Z,67.89
2023-03-01T18:55:52.187Z,68.19
2023-03-01T18:57:55.883Z,67.89
2023-03-01T18:59:58.561Z,68.57
2023-03-01T19:02:02.818Z,68.61
2023-03-01T19:04:06.528Z,68.31
2023-03-01T19:06:09.455Z,68.12
2023-03-01T19:08:12.194Z,68.24
2023-03-01T19:10:14.836Z,68.06
2023-03-01T19:12:17.530Z,68.54
2023-03-01T19:14:20.226Z,67.98
2023-03-01T19:16:24.974Z,68.37
2023-03-01T19:18:29.072Z,68.16
2023-03-01T19:20:31.773Z,68.44
2023-03-01T19:22:34.438Z,69.53
2023-03-01T19:24:37.252Z,70.22
2023-03-01T19:26:41.715Z,70.20
2023-03-01T19:28:44.720Z,69.58
2023-03-01T19:30:47.442Z,69.29
2023-03-01T19:32:52.292Z,69.02
2023-03-01T19:34:56.288Z,69.64
2023-03-01T19:36:59.003Z,69.77
2023-03-01T19:39:02.883Z,69.52
2023-03-01T19:41:06.732Z,69.16
2023-03-01T19:43:09.429Z,69.70
2023-03-01T19:45:12.883Z,69.60
2023-03-01T19:47:16.279Z,70.00
2023-03-01T19:49:18.940Z,69.31
2023-03-01T19:51:23.077Z,69.95
2023-03-01T19:53:26.035Z,69.62
2023-03-01T19:55:28.712Z,69.72
2023-03-01T19:57:32.033Z,70.03
2023-03-01T19:59:34.821Z,70.44
2023-03-01T20:01:38.018Z,70.04
2023-03-01T20:03:40.870Z,70.54
2023-03-01T20:05:44.184Z,70.13
2023-03-01T20:07:48.274Z,70.02
2023-03-01T20:09:50.881Z,70.52
2023-03-01T20:11:53.594Z,70.53
2023-03-01T20:13:56.478Z,70.74
2023-03-01T20:15:59.219Z,70.59
2023-03-01T20:18:01.942Z,70.40
2023-03-01T20:20:05.279Z,70.76
2023-03-01T20:22:08.088Z,71.05
2023-03-01T20:24:12.156Z,71.07
2023-03-01T20:26:19.108Z,71.12
2023-03-01T20:28:21.628Z,70.83
2023-03-01T20:30:24.928Z,71.58
2023-03-01T20:32:27.946Z,71.41
2023-03-01T20:34:30.676Z,71.31
2023-03-01T20:36:34.122Z,72.20
2023-03-01T20:38:39.427Z,72.16
2023-03-01T20:40:43.468Z,72.11
2023-03-01T20:42:46.097Z,72.00
2023-03-01T20:44:48.770Z,72.91
2023-03-01T20:46:51.610Z,72.78
2023-03-01T20:48:54.803Z,73.18
2023-03-01T20:51:01.594Z,73.37
2023-03-01T20:53:04.156Z,73.27
2023-03-01T20:55:08.207Z,73.72
2023-03-01T20:57:12.272Z,73.70
2023-03-01T20:59:15.953Z,73.69
2023-03-01T21:01:20.996Z,73.96
2023-03-01T21:03:23.775Z,73.97
2023-03-01T21:05:26.446Z,74.35
2023-03-01T21:07:29.094Z,74.31
2023-03-01T21:09:31.726Z,74.45
2023-03-01T21:11:34.567Z,74.61
2023-03-01T21:13:38.671Z,74.65
2023-03-01T21:15:41.359Z,74.82
2023-03-01T21:17:44.051Z,74.97
2023-03-01T21:19:46.812Z,74.77
2023-03-01T21:21:49.523Z,75.67
2023-03-01T21:23:52.349Z,75.94
2023-03-01T21:26:03.043Z,75.63
2023-03-01T21:28:05.937Z,75.67
2023-03-01T21:30:11.644Z,76.09
2023-03-01T21:32:15.478Z,75.82
2023-03-01T21:34:18.292Z,75.93
2023-03-01T21:36:21.989Z,75.72
2023-03-01T21:38:24.746Z,76.83
2023-03-01T21:40:27.651Z,76.79
2023-03-01T21:42:31.954Z,76.35
2023-03-01T21:44:34.790Z,77.01
2023-03-01T21:46:40.296Z,77.08
2023-03-01T21:48:45.240Z,77.03
2023-03-01T21:50:55.767Z,77.69
2023-03-01T21:52:58.505Z,77.64
2023-03-01T21:55:02.984Z,78.22
2023-03-01T21:57:05.619Z,77.92
2023-03-01T21:59:09.555Z,78.41
2023-03-01T22:01:14.505Z,78.40
2023-03-01T22:03:18.732Z,78.69
2023-03-01T22:05:21.453Z,78.88
2023-03-01T22:07:24.540Z,79.13
2023-03-01T22:09:27.414Z,79.49
2023-03-01T22:11:30.485Z,79.20
2023-03-01T22:13:33.110Z,79.83
2023-03-01T22:15:35.842Z,79.12
2023-03-01T22:17:38.537Z,80.05
2023-03-01T22:19:42.596Z,79.78
2023-03-01T22:21:49.096Z,80.32
2023-03-01T22:23:52.989Z,80.31
2023-03-01T22:25:55.799Z,80.52
2023-03-01T22:27:58.644Z,80.94
2023-03-01T22:30:01.340Z,81.10
2023-03-01T22:32:04.823Z,80.94
2023-03-01T22:34:08.042Z,81.52
2023-03-01T22:36:12.326Z,81.04
2023-03-01T22:38:15.085Z,81.11
2023-03-01T22:40:17.934Z,81.51
2023-03-01T22:42:21.034Z,81.46
2023-03-01T22:44:24.694Z,81.68
2023-03-01T22:46:28.544Z,81.71
2023-03-01T22:48:31.254Z,81.38
2023-03-01T22:50:34.026Z,81.66
2023-03-01T22:52:39.639Z,81.89
2023-03-01T22:54:42.394Z,81.54
2023-03-01T22:56:46.423Z,81.94
2023-03-01T22:58:49.775Z,82.51
2023-03-01T23:00:52.501Z,82.68
2023-03-01T23:02:55.489Z,83.06
2023-03-01T23:04:58.284Z,82.81
2023-03-01T23:07:00.914Z,83.30
2023-03-01T23:09:06.786Z,83.02
2023-03-01T23:11:12.570Z,83.55
2023-03-01T23:13:15.324Z,83.91
2023-03-01T23:15:18.034Z,83.93
2023-03-01T23:17:20.808Z,83.75
2023-03-01T23:19:23.797Z,84.38
2023-03-01T23:21:27.024Z,84.18
2023-03-01T23:23:29.689Z,84.29
2023-03-01T23:25:33.730Z,84.54
2023-03-01T23:27:37.513Z,84.37
2023-03-01T23:29:40.291Z,84.72
2023-03-01T23:31:42.948Z,84.96
2023-03-01T23:33:46.888Z,85.03
2023-03-01T23:35:49.616Z,84.83
2023-03-01T23:37:52.376Z,85.13
2023-03-01T23:39:55.010Z,85.02
2023-03-01T23:41:59.090Z,85.13
2023-03-01T23:44:03.610Z,85.31
2023-03-01T23:46:06.847Z,86.26
2023-03-01T23:48:11.162Z,86.15
2023-03-01T23:50:13.922Z,86.69
2023-03-01T23:52:17.413Z,86.55
2023-03-01T23:54:21.841Z,87.00
2023-03-01T23:56:26.765Z,87.16
2023-03-01T23:58:30.974Z,87.27
